createdAt,value
2023-01-31T00:01:12.005Z,92.75
2023-01-31T00:06:21.973Z,92.66
2023-01-31T00:11:25.632Z,92.83
2023-01-31T00:16:27.714Z,93.02
2023-01-31T00:21:31.111Z,92.84
2023-01-31T00:26:34.924Z,93.19
2023-01-31T00:31:37.024Z,93.60
2023-01-31T00:36:38.979Z,93.41
2023-01-31T00:41:43.006Z,92.84
2023-01-31T00:46:47.051Z,92.91
2023-01-31T00:51:48.461Z,92.44
2023-01-31T00:56:49.910Z,93.28
2023-01-31T01:01:51.467Z,92.68
2023-01-31T01:06:52.979Z,93.61
2023-01-31T01:11:54.388Z,94.19
2023-01-31T01:16:58.226Z,94.17
2023-01-31T01:22:01.023Z,94.23
2023-01-31T01:27:04.923Z,95.26
2023-01-31T01:32:07.468Z,93.03
2023-01-31T01:37:19.900Z,93.49
2023-01-31T01:42:24.125Z,94.53
2023-01-31T01:47:35.172Z,95.08
2023-01-31T01:52:42.500Z,95.76
2023-01-31T01:57:47.621Z,95.88
2023-01-31T02:02:52.146Z,95.81
2023-01-31T02:07:58.544Z,96.41
2023-01-31T02:13:00.284Z,96.32
2023-01-31T02:18:03.630Z,95.82
2023-01-31T02:23:23.855Z,95.28
2023-01-31T02:28:47.012Z,95.77
2023-01-31T02:33:48.505Z,95.14
2023-01-31T02:39:15.017Z,94.65
2023-01-31T02:44:59.541Z,94.90
2023-01-31T02:50:11.440Z,94.98
2023-01-31T02:55:50.942Z,92.61
2023-01-31T03:00:57.853Z,94.65
2023-01-31T03:06:24.641Z,94.89
2023-01-31T03:11:34.617Z,93.23
2023-01-31T03:17:11.442Z,92.89
2023-01-31T03:22:23.967Z,95.38
2023-01-31T03:27:25.425Z,94.67
2023-01-31T03:32:45.785Z,92.75
2023-01-31T03:37:55.673Z,92.88
2023-01-31T03:43:24.098Z,94.03
2023-01-31T03:48:32.753Z,94.79
2023-01-31T03:53:42.035Z,95.24
2023-01-31T03:58:53.666Z,95.27
2023-01-31T04:04:01.115Z,95.56
2023-01-31T04:09:02.921Z,95.91
2023-01-31T04:14:04.461Z,95.84
2023-01-31T04:19:06.345Z,95.74
2023-01-31T04:24:10.321Z,95.40
2023-01-31T04:29:12.095Z,95.14
2023-01-31T04:34:13.638Z,95.23
2023-01-31T04:39:15.823Z,95.01
2023-01-31T04:44:17.289Z,94.72
2023-01-31T04:49:18.712Z,94.93
2023-01-31T04:54:20.230Z,94.75
2023-01-31T04:59:21.647Z,94.51
2023-01-31T05:04:23.590Z,94.63
2023-01-31T05:09:25.157Z,94.58
2023-01-31T05:14:27.253Z,94.59
2023-01-31T05:19:28.656Z,94.58
2023-01-31T05:24:31.870Z,94.19
2023-01-31T05:29:33.622Z,94.04
2023-01-31T05:34:35.937Z,94.26
2023-01-31T05:39:37.504Z,94.09
2023-01-31T05:44:38.931Z,94.03
2023-01-31T05:49:40.370Z,94.31
2023-01-31T05:54:41.770Z,94.50
2023-01-31T05:59:43.364Z,94.48
2023-01-31T06:04:44.766Z,94.15
2023-01-31T06:09:46.176Z,94.56
2023-01-31T06:14:49.273Z,95.06
2023-01-31T06:19:51.639Z,94.90
2023-01-31T06:24:53.095Z,95.28
2023-01-31T06:29:55.380Z,95.08
2023-01-31T06:34:57.427Z,96.06
2023-01-31T06:39:59.515Z,95.83
2023-01-31T06:45:00.925Z,95.98
2023-01-31T06:50:02.419Z,96.11
2023-01-31T06:55:04.016Z,96.31
2023-01-31T07:00:06.080Z,96.35
2023-01-31T07:05:07.913Z,96.23
2023-01-31T07:10:10.487Z,96.18
2023-01-31T07:15:12.238Z,96.66
2023-01-31T07:20:13.804Z,97.11
2023-01-31T07:25:15.380Z,96.96
2023-01-31T07:30:16.961Z,97.16
2023-01-31T07:35:19.492Z,96.66
2023-01-31T07:40:21.184Z,96.44
2023-01-31T07:45:23.984Z,96.77
2023-01-31T07:50:27.131Z,96.42
2023-01-31T07:55:28.574Z,96.02
2023-01-31T08:00:48.569Z,96.00
2023-01-31T08:05:50.068Z,96.23
2023-01-31T08:10:51.508Z,96.29
2023-01-31T08:15:53.868Z,96.68
2023-01-31T08:20:57.265Z,96.50
2023-01-31T08:26:10.318Z,95.90
2023-01-31T08:31:16.257Z,96.04
2023-01-31T08:36:19.516Z,95.32
2023-01-31T08:41:23.737Z,95.98
2023-01-31T08:46:31.145Z,95.53
2023-01-31T08:51:32.871Z,95.82
2023-01-31T08:56:34.289Z,96.07
2023-01-31T09:01:35.793Z,95.68
2023-01-31T09:06:37.340Z,94.55
2023-01-31T09:12:21.976Z,95.15
2023-01-31T09:17:23.434Z,94.67
2023-01-31T09:22:24.960Z,94.20
2023-01-31T09:27:27.187Z,94.95
2023-01-31T09:32:30.066Z,95.56
2023-01-31T09:37:32.273Z,94.97
2023-01-31T09:42:45.389Z,95.67
2023-01-31T09:47:50.705Z,95.53
2023-01-31T09:52:52.252Z,94.86
2023-01-31T09:58:17.749Z,94.80
2023-01-31T10:03:43.460Z,95.31
2023-01-31T10:08:46.617Z,95.61
2023-01-31T10:13:57.690Z,94.68
2023-01-31T10:19:06.217Z,94.94
2023-01-31T10:24:23.883Z,94.00
2023-01-31T10:29:34.103Z,93.94
2023-01-31T10:34:43.478Z,93.58
2023-01-31T10:39:56.627Z,93.71
2023-01-31T10:45:15.507Z,93.85
2023-01-31T10:50:19.670Z,93.74
2023-01-31T10:55:33.964Z,93.04
2023-01-31T11:00:35.652Z,92.77
2023-01-31T11:05:40.275Z,92.33
2023-01-31T11:10:51.958Z,93.09
2023-01-31T11:15:55.471Z,92.96
2023-01-31T11:20:59.483Z,93.33
2023-01-31T11:26:02.210Z,93.37
2023-01-31T11:31:06.967Z,92.73
2023-01-31T11:36:14.805Z,92.95
2023-01-31T11:41:37.344Z,92.40
2023-01-31T11:46:56.035Z,92.71
2023-01-31T11:52:01.113Z,93.36
2023-01-31T11:57:13.097Z,93.19
2023-01-31T12:02:31.264Z,93.35
2023-01-31T12:07:44.233Z,92.97
2023-01-31T12:12:45.719Z,92.78
2023-01-31T12:17:50.473Z,92.70
2023-01-31T12:23:28.896Z,91.99
2023-01-31T12:29:12.034Z,91.99
2023-01-31T12:34:41.902Z,91.51
2023-01-31T12:40:22.873Z,91.44
2023-01-31T12:45:42.740Z,91.71
2023-01-31T12:51:15.846Z,91.25
2023-01-31T12:56:29.755Z,90.08
2023-01-31T13:01:47.422Z,91.69
2023-01-31T13:06:58.688Z,91.79
2023-01-31T13:12:11.648Z,92.40
2023-01-31T13:17:17.581Z,92.45
2023-01-31T13:22:42.033Z,91.54
2023-01-31T13:27:52.100Z,92.10
2023-01-31T13:32:56.120Z,93.03
2023-01-31T13:38:02.886Z,92.58
2023-01-31T13:43:13.152Z,92.31
2023-01-31T13:48:25.722Z,92.82
2023-01-31T13:53:32.572Z,93.06
2023-01-31T13:58:36.153Z,93.24
2023-01-31T14:04:12.341Z,93.65
2023-01-31T14:09:24.272Z,93.33
2023-01-31T14:14:37.330Z,94.08
2023-01-31T14:19:47.754Z,94.10
2023-01-31T14:25:00.078Z,93.38
2023-01-31T14:30:04.713Z,93.86
2023-01-31T14:35:23.837Z,94.11
2023-01-31T14:40:57.629Z,93.85
2023-01-31T14:46:12.911Z,93.64
2023-01-31T14:51:52.383Z,94.52
2023-01-31T14:57:12.388Z,94.49
2023-01-31T15:02:43.867Z,93.58
2023-01-31T15:08:23.973Z,93.81
2023-01-31T15:13:56.189Z,93.25
2023-01-31T15:19:08.258Z,93.62
2023-01-31T15:24:24.905Z,92.87
2023-01-31T15:29:33.777Z,93.49
2023-01-31T15:34:46.911Z,93.05
2023-01-31T15:40:19.865Z,93.55
2023-01-31T15:45:25.542Z,94.17
2023-01-31T15:50:30.352Z,94.38
2023-01-31T15:55:35.950Z,93.67
2023-01-31T16:00:38.077Z,93.43
2023-01-31T16:05:40.152Z,94.46
2023-01-31T16:10:44.477Z,93.84
2023-01-31T16:15:47.063Z,94.20
2023-01-31T16:20:51.687Z,93.88
2023-01-31T16:26:11.234Z,94.45
2023-01-31T16:31:16.459Z,94.86
2023-01-31T16:36:27.527Z,95.14
2023-01-31T16:41:52.957Z,94.78
2023-01-31T16:46:54.457Z,94.87
2023-01-31T16:52:13.429Z,95.60
2023-01-31T16:57:25.755Z,94.95
2023-01-31T17:02:33.570Z,95.86
2023-01-31T17:07:36.867Z,95.67
2023-01-31T17:12:40.613Z,94.97
2023-01-31T17:17:42.171Z,95.44
2023-01-31T17:22:53.228Z,95.12
2023-01-31T17:27:58.253Z,95.25
2023-01-31T17:33:00.459Z,95.38
2023-01-31T17:38:02.468Z,95.13
2023-01-31T17:43:05.119Z,95.25
2023-01-31T17:48:07.741Z,95.68
2023-01-31T17:53:13.600Z,95.53
2023-01-31T17:58:18.015Z,95.58
2023-01-31T18:03:22.636Z,95.13
2023-01-31T18:08:24.176Z,95.41
2023-01-31T18:13:25.592Z,95.05
2023-01-31T18:18:26.987Z,94.68
2023-01-31T18:23:28.499Z,95.12
2023-01-31T18:28:29.955Z,94.63
2023-01-31T18:33:32.206Z,95.03
2023-01-31T18:38:33.675Z,94.66
2023-01-31T18:43:35.560Z,94.71
2023-01-31T18:48:38.890Z,94.68
2023-01-31T18:53:41.577Z,94.53
2023-01-31T18:58:46.874Z,93.78
2023-01-31T19:03:50.210Z,94.12
2023-01-31T19:08:52.554Z,93.39
2023-01-31T19:13:54.632Z,93.36
2023-01-31T19:18:56.809Z,94.01
2023-01-31T19:24:00.712Z,94.57
2023-01-31T19:29:04.527Z,94.17
2023-01-31T19:34:06.887Z,94.66
2023-01-31T19:39:11.237Z,94.18
2023-01-31T19:44:12.733Z,94.83
2023-01-31T19:49:14.243Z,94.22
2023-01-31T19:54:17.564Z,93.89
2023-01-31T19:59:19.993Z,93.65
2023-01-31T20:04:21.434Z,94.12
2023-01-31T20:09:22.861Z,94.46
2023-01-31T20:14:24.551Z,94.17
2023-01-31T20:19:25.995Z,95.29
2023-01-31T20:24:27.511Z,95.38
2023-01-31T20:29:28.940Z,95.71
2023-01-31T20:34:30.368Z,95.42
2023-01-31T20:39:31.788Z,95.41
2023-01-31T20:44:33.399Z,95.28
2023-01-31T20:49:34.831Z,95.74
2023-01-31T20:54:36.311Z,95.11
2023-01-31T20:59:38.066Z,95.45
2023-01-31T21:04:39.500Z,95.33
2023-01-31T21:09:40.935Z,94.99
2023-01-31T21:14:42.419Z,95.15
2023-01-31T21:19:43.940Z,95.99
2023-01-31T21:24:45.365Z,96.80
2023-01-31T21:29:46.887Z,96.64
2023-01-31T21:34:48.525Z,97.01
2023-01-31T21:39:49.921Z,97.36
2023-01-31T21:44:51.325Z,97.05
2023-01-31T21:49:52.758Z,97.17
2023-01-31T21:54:54.213Z,97.21
2023-01-31T21:59:55.639Z,96.92
2023-01-31T22:04:57.054Z,96.72
2023-01-31T22:09:58.526Z,97.15
2023-01-31T22:14:59.996Z,97.20
2023-01-31T22:20:01.525Z,96.82
2023-01-31T22:25:03.095Z,97.19
2023-01-31T22:30:27.784Z,96.90
2023-01-31T22:35:26.572Z,97.22
2023-01-31T22:40:28.012Z,96.55
2023-01-31T22:45:29.403Z,96.54
2023-01-31T22:50:30.815Z,95.48
2023-01-31T22:55:32.359Z,96.05
2023-01-31T23:00:34.346Z,95.69
2023-01-31T23:05:39.844Z,95.52
2023-01-31T23:10:42.688Z,95.50
2023-01-31T23:15:44.129Z,95.71
2023-01-31T23:20:45.550Z,95.11
2023-01-31T23:25:46.985Z,95.40
2023-01-31T23:30:48.849Z,95.54
2023-01-31T23:35:50.976Z,95.53
2023-01-31T23:40:53.861Z,94.72
2023-01-31T23:45:55.304Z,94.44
2023-01-31T23:51:03.450Z,94.49
2023-01-31T23:56:05.113Z,94.70
